Time;durP1;ratioP1;P1;durP2;ratioP2;P2;SDS_P1;SDS_P2;PMS_P1;PMS_P2;Temp;Humidity;BMP_temperature;BMP_pressure;BME280_temperature;BME280_humidity;BME280_pressure;Samples;Min_cycle;Max_cycle;Signal;HPM_P1;HPM_P2
2023/12/09 00:01:18;;;;;;;36.22;29.45;;;3.20;1.00;;;;;;5151883;27;20920;-80
2023/12/09 00:03:45;;;;;;;42.38;31.10;;;3.10;1.00;;;;;;5154204;27;20230;-80
2023/12/09 00:06:13;;;;;;;37.03;28.35;;;3.00;1.00;;;;;;5150802;27;20229;-80
2023/12/09 00:08:42;;;;;;;34.58;28.13;;;3.00;1.00;;;;;;5153969;27;20299;-80
2023/12/09 00:11:09;;;;;;;37.88;28.85;;;3.00;1.00;;;;;;5148442;27;20281;-80
2023/12/09 00:13:35;;;;;;;38.80;28.92;;;3.00;1.00;;;;;;5150150;27;21032;-80
2023/12/09 00:16:03;;;;;;;36.65;28.30;;;2.90;1.00;;;;;;5154587;27;20496;-80
2023/12/09 00:18:30;;;;;;;37.63;28.02;;;3.00;1.00;;;;;;5154396;27;20230;-80
2023/12/09 00:20:58;;;;;;;36.30;28.33;;;3.10;1.00;;;;;;5153405;27;20230;-82
2023/12/09 00:23:26;;;;;;;40.55;29.77;;;3.10;1.00;;;;;;5148367;27;20308;-77
2023/12/09 00:25:53;;;;;;;40.30;28.48;;;3.10;1.00;;;;;;5143726;27;20234;-79
2023/12/09 00:28:21;;;;;;;39.70;30.80;;;3.10;1.00;;;;;;5150542;27;20234;-82
2023/12/09 00:30:48;;;;;;;39.63;28.48;;;3.10;1.00;;;;;;5150259;27;20234;-81
2023/12/09 00:33:16;;;;;;;36.83;28.92;;;3.20;1.00;;;;;;5151322;27;20709;-82
2023/12/09 00:35:44;;;;;;;40.00;29.05;;;3.20;1.00;;;;;;5149616;27;20233;-82
2023/12/09 00:38:12;;;;;;;40.15;29.95;;;3.10;1.00;;;;;;5130671;27;20299;-80
2023/12/09 00:40:40;;;;;;;36.75;29.58;;;3.20;1.00;;;;;;5154575;27;20232;-81
2023/12/09 00:43:08;;;;;;;39.47;28.52;;;3.10;1.00;;;;;;5141346;27;20265;-79
2023/12/09 00:45:35;;;;;;;37.75;28.95;;;3.20;1.00;;;;;;5149721;27;20234;-79
2023/12/09 00:48:02;;;;;;;38.42;28.58;;;3.20;1.00;;;;;;5147035;27;20321;-80
2023/12/09 00:50:29;;;;;;;39.53;28.83;;;3.20;1.00;;;;;;5146058;27;22730;-80
2023/12/09 00:52:56;;;;;;;39.88;28.85;;;3.30;1.00;;;;;;5149037;27;20752;-81
2023/12/09 00:55:23;;;;;;;37.33;27.60;;;3.30;1.00;;;;;;5147983;27;20267;-80
2023/12/09 00:57:51;;;;;;;36.13;27.75;;;3.20;1.00;;;;;;5144756;27;20238;-79
2023/12/09 01:00:18;;;;;;;34.45;27.27;;;3.20;1.00;;;;;;5149430;27;20286;-78
2023/12/09 01:02:45;;;;;;;36.42;26.42;;;3.20;1.00;;;;;;5151356;27;20264;-78
2023/12/09 01:05:12;;;;;;;38.28;27.13;;;3.20;1.00;;;;;;5146232;27;20310;-78
2023/12/09 01:07:39;;;;;;;39.28;30.38;;;3.30;1.00;;;;;;5153870;27;20233;-78
2023/12/09 01:10:07;;;;;;;37.00;28.92;;;3.20;1.00;;;;;;5153121;27;21067;-79
2023/12/09 01:12:34;;;;;;;38.40;28.80;;;3.30;1.00;;;;;;5150471;27;20306;-78
2023/12/09 01:15:03;;;;;;;39.50;28.08;;;3.30;1.00;;;;;;5151973;27;20314;-79
2023/12/09 01:17:30;;;;;;;41.65;29.00;;;3.30;1.00;;;;;;5145682;27;20325;-79
2023/12/09 01:19:57;;;;;;;39.13;27.63;;;3.30;1.00;;;;;;5150942;27;20332;-78
2023/12/09 01:22:26;;;;;;;38.25;28.80;;;3.40;1.00;;;;;;5147617;27;26173;-79
2023/12/09 01:24:52;;;;;;;39.08;27.67;;;3.40;1.00;;;;;;5154966;27;20239;-79
2023/12/09 01:27:20;;;;;;;42.07;29.87;;;3.40;1.00;;;;;;5151264;27;20743;-79
2023/12/09 01:29:50;;;;;;;36.05;27.15;;;3.30;1.00;;;;;;5152085;27;20460;-78
2023/12/09 01:32:18;;;;;;;36.35;26.98;;;3.30;1.00;;;;;;5150500;27;20353;-79
2023/12/09 01:34:45;;;;;;;38.58;27.83;;;3.30;1.00;;;;;;5137350;27;20245;-79
2023/12/09 01:37:15;;;;;;;36.17;27.60;;;3.30;1.00;;;;;;5150173;27;21172;-79
2023/12/09 01:39:42;;;;;;;39.30;29.35;;;3.30;1.00;;;;;;5152197;27;21022;-79
2023/12/09 01:42:09;;;;;;;40.47;30.38;;;3.40;1.00;;;;;;5152188;27;20242;-79
2023/12/09 01:44:36;;;;;;;37.08;27.25;;;3.30;1.00;;;;;;5142430;27;20244;-79
2023/12/09 01:47:04;;;;;;;42.25;29.13;;;3.30;1.00;;;;;;5147265;27;20808;-79
2023/12/09 01:49:32;;;;;;;39.00;30.38;;;3.30;1.00;;;;;;5151090;27;20234;-80
2023/12/09 01:52:01;;;;;;;35.50;26.90;;;3.20;1.00;;;;;;5151217;27;20233;-79
2023/12/09 01:54:28;;;;;;;41.58;29.13;;;3.10;1.00;;;;;;5150496;27;20233;-79
2023/12/09 01:56:56;;;;;;;36.15;27.40;;;3.10;1.00;;;;;;5153123;27;20265;-78
2023/12/09 01:59:23;;;;;;;35.92;26.27;;;3.20;1.00;;;;;;5150821;27;20337;-78
2023/12/09 02:01:52;;;;;;;35.30;27.40;;;3.30;1.00;;;;;;5149768;27;20339;-79
2023/12/09 02:04:20;;;;;;;38.80;27.50;;;3.30;1.00;;;;;;5137917;27;20234;-78
2023/12/09 02:06:50;;;;;;;40.80;28.17;;;3.30;1.00;;;;;;5148447;27;20333;-79
2023/12/09 02:09:18;;;;;;;40.30;26.73;;;3.30;1.00;;;;;;5140892;27;20242;-78
2023/12/09 02:11:53;;;;;;;37.30;26.95;;;3.40;1.00;;;;;;5144861;27;20249;-79
2023/12/09 02:14:27;;;;;;;37.28;27.80;;;3.40;1.00;;;;;;5151947;27;20236;-79
2023/12/09 02:17:00;;;;;;;36.95;27.27;;;3.40;1.00;;;;;;5150112;27;20299;-79
2023/12/09 02:19:28;;;;;;;43.60;30.33;;;3.30;1.00;;;;;;5146725;27;20325;-79
2023/12/09 02:22:01;;;;;;;35.85;26.90;;;3.20;1.00;;;;;;5152321;27;20227;-79
2023/12/09 02:24:29;;;;;;;38.58;26.95;;;3.10;1.00;;;;;;5150541;27;20241;-78
2023/12/09 02:27:03;;;;;;;39.50;28.92;;;3.10;1.00;;;;;;5140223;27;20412;-80
2023/12/09 02:29:36;;;;;;;37.25;28.05;;;3.10;1.00;;;;;;5146220;27;20316;-79
2023/12/09 02:32:08;;;;;;;36.90;28.33;;;3.20;1.00;;;;;;5149481;27;20317;-78
2023/12/09 02:34:40;;;;;;;38.63;28.27;;;3.20;1.00;;;;;;5149639;27;20237;-80
2023/12/09 02:37:09;;;;;;;38.78;26.65;;;3.20;1.00;;;;;;5147910;27;20241;-78
2023/12/09 02:39:38;;;;;;;38.92;28.25;;;3.20;1.00;;;;;;5149784;27;20930;-79
2023/12/09 02:42:06;;;;;;;38.47;27.65;;;3.30;1.00;;;;;;5146230;27;20251;-79
2023/12/09 02:44:34;;;;;;;38.90;28.08;;;3.40;1.00;;;;;;5144926;27;20942;-80
2023/12/09 02:47:01;;;;;;;36.10;25.42;;;3.40;1.00;;;;;;5144991;27;20261;-79
2023/12/09 02:49:28;;;;;;;37.58;27.95;;;3.40;1.00;;;;;;5148021;27;20238;-79
2023/12/09 02:51:55;;;;;;;39.60;29.00;;;3.40;1.00;;;;;;5150614;27;20270;-80
2023/12/09 02:54:23;;;;;;;35.50;26.83;;;3.40;1.00;;;;;;5151483;27;20332;-79
2023/12/09 02:56:51;;;;;;;40.00;28.63;;;3.40;1.00;;;;;;5148057;27;20291;-80
2023/12/09 02:59:20;;;;;;;36.97;27.35;;;3.50;1.00;;;;;;5147181;27;20616;-78
2023/12/09 03:01:48;;;;;;;39.45;28.27;;;3.40;1.00;;;;;;5151541;27;20308;-79
2023/12/09 03:04:18;;;;;;;44.38;29.33;;;3.50;1.00;;;;;;5150206;27;20229;-79
2023/12/09 03:06:45;;;;;;;41.42;28.90;;;3.50;1.00;;;;;;5147733;27;20607;-78
2023/12/09 03:09:12;;;;;;;41.60;29.38;;;3.40;1.00;;;;;;5152434;27;20317;-79
2023/12/09 03:11:39;;;;;;;39.58;28.65;;;3.40;1.00;;;;;;5152210;27;20238;-79
2023/12/09 03:14:07;;;;;;;39.88;29.10;;;3.30;1.00;;;;;;5147224;27;20231;-79
2023/12/09 03:16:37;;;;;;;41.35;30.30;;;3.30;1.00;;;;;;5149931;27;20234;-78
2023/12/09 03:19:04;;;;;;;45.25;29.25;;;3.30;1.00;;;;;;5156555;27;20229;-78
2023/12/09 03:21:31;;;;;;;39.97;27.60;;;3.40;1.00;;;;;;5149472;27;20234;-79
2023/12/09 03:23:59;;;;;;;33.90;27.38;;;3.40;1.00;;;;;;5151552;27;20321;-78
2023/12/09 03:26:26;;;;;;;37.90;27.85;;;3.40;1.00;;;;;;5139500;27;20233;-78
2023/12/09 03:28:53;;;;;;;39.60;28.67;;;3.40;1.00;;;;;;5147301;27;20852;-79
2023/12/09 03:31:22;;;;;;;42.38;28.65;;;3.40;1.00;;;;;;5152137;27;20993;-78
2023/12/09 03:33:50;;;;;;;35.50;25.80;;;3.40;1.00;;;;;;5150306;27;20234;-78
2023/12/09 03:36:17;;;;;;;41.95;26.75;;;3.50;1.00;;;;;;5141411;27;20321;-79
2023/12/09 03:38:44;;;;;;;42.13;27.60;;;3.50;1.00;;;;;;5149550;27;20273;-78
2023/12/09 03:41:11;;;;;;;38.90;28.52;;;3.50;1.00;;;;;;5148866;27;20241;-79
2023/12/09 03:43:39;;;;;;;37.10;26.52;;;3.50;1.00;;;;;;5149509;27;20238;-78
2023/12/09 03:46:07;;;;;;;39.72;27.90;;;3.60;1.00;;;;;;5147600;27;20231;-78
2023/12/09 03:48:36;;;;;;;34.85;26.50;;;3.60;1.00;;;;;;5147059;27;20234;-79
2023/12/09 03:51:03;;;;;;;40.63;26.02;;;3.60;1.00;;;;;;5151684;27;20256;-80
2023/12/09 03:53:30;;;;;;;40.70;27.35;;;3.50;1.00;;;;;;5137050;27;22105;-78
2023/12/09 03:55:58;;;;;;;45.13;29.95;;;3.50;1.00;;;;;;5141417;27;20218;-78
2023/12/09 03:58:25;;;;;;;40.40;29.60;;;3.50;1.00;;;;;;5148152;27;20222;-79
2023/12/09 04:00:52;;;;;;;42.00;29.38;;;3.60;1.00;;;;;;5138453;27;20259;-81
2023/12/09 04:03:19;;;;;;;38.92;28.67;;;3.60;1.00;;;;;;5146526;27;20240;-80
2023/12/09 04:05:50;;;;;;;39.30;28.05;;;3.60;1.00;;;;;;5147813;27;20237;-80
2023/12/09 04:08:17;;;;;;;42.97;28.67;;;3.60;1.00;;;;;;5149108;27;20982;-81
2023/12/09 04:10:44;;;;;;;40.63;29.67;;;3.70;1.00;;;;;;5149148;27;20311;-80
2023/12/09 04:13:14;;;;;;;43.15;29.13;;;3.70;1.00;;;;;;5148223;27;21438;-78
2023/12/09 04:15:43;;;;;;;42.15;30.02;;;3.70;1.00;;;;;;5138104;27;20231;-80
2023/12/09 04:18:09;;;;;;;41.25;29.98;;;3.80;1.00;;;;;;5147260;27;20242;-78
2023/12/09 04:20:37;;;;;;;46.28;29.02;;;3.70;1.00;;;;;;5155408;27;20288;-79
2023/12/09 04:23:05;;;;;;;44.53;28.50;;;3.60;1.00;;;;;;5146898;27;20378;-80
2023/12/09 04:25:32;;;;;;;44.78;30.65;;;3.60;1.00;;;;;;5144955;27;20222;-79
2023/12/09 04:27:59;;;;;;;44.95;29.52;;;3.60;1.00;;;;;;5144779;27;20457;-79
2023/12/09 04:30:26;;;;;;;48.05;29.90;;;3.60;1.00;;;;;;5140145;27;20804;-79
2023/12/09 04:32:53;;;;;;;52.75;31.35;;;3.50;1.00;;;;;;5147768;27;20230;-79
2023/12/09 04:35:21;;;;;;;52.03;31.77;;;3.50;1.00;;;;;;5146869;27;20313;-78
2023/12/09 04:37:48;;;;;;;52.63;31.13;;;3.50;1.00;;;;;;5149717;27;20234;-79
2023/12/09 04:40:17;;;;;;;54.08;31.17;;;3.50;1.00;;;;;;5138930;27;21032;-78
2023/12/09 04:42:44;;;;;;;49.05;29.83;;;3.30;1.00;;;;;;5149183;27;20288;-78
2023/12/09 04:45:12;;;;;;;50.75;30.27;;;3.40;1.00;;;;;;5139236;27;20377;-77
2023/12/09 04:47:39;;;;;;;49.05;29.17;;;3.50;1.00;;;;;;5151448;27;20242;-80
2023/12/09 04:50:08;;;;;;;49.22;30.58;;;3.50;1.00;;;;;;5145456;27;20245;-78
2023/12/09 04:52:35;;;;;;;52.42;32.65;;;3.60;1.00;;;;;;5153174;27;20989;-78
2023/12/09 04:55:03;;;;;;;51.60;31.73;;;3.50;1.00;;;;;;5146869;27;20236;-78
2023/12/09 04:57:31;;;;;;;57.92;33.47;;;3.50;1.00;;;;;;5148807;27;20277;-79
2023/12/09 04:59:59;;;;;;;57.90;32.40;;;3.50;1.00;;;;;;5142038;27;20643;-79
2023/12/09 05:02:26;;;;;;;56.67;31.27;;;3.50;1.00;;;;;;5137414;27;20290;-79
2023/12/09 05:04:53;;;;;;;60.50;32.58;;;3.50;1.00;;;;;;5141925;27;20822;-80
2023/12/09 05:07:25;;;;;;;59.13;30.52;;;3.40;1.00;;;;;;5148385;27;20230;-80
2023/12/09 05:09:53;;;;;;;60.28;32.72;;;3.30;1.00;;;;;;5146521;27;20242;-80
2023/12/09 05:12:21;;;;;;;51.70;31.70;;;3.40;1.00;;;;;;5147999;27;20612;-79
2023/12/09 05:14:49;;;;;;;58.00;33.88;;;3.50;1.00;;;;;;5141762;27;20256;-81
2023/12/09 05:17:17;;;;;;;60.08;33.95;;;3.50;1.00;;;;;;5143668;27;20238;-79
2023/12/09 05:19:44;;;;;;;70.45;35.10;;;3.40;1.00;;;;;;5147386;27;20240;-79
2023/12/09 05:22:11;;;;;;;75.18;34.65;;;3.50;1.00;;;;;;5145186;27;20250;-81
2023/12/09 05:24:38;;;;;;;73.78;36.50;;;3.50;1.00;;;;;;5148410;27;20722;-80
2023/12/09 05:27:06;;;;;;;61.30;32.88;;;3.60;1.00;;;;;;5147192;27;21163;-79
2023/12/09 05:29:34;;;;;;;59.15;33.92;;;3.60;1.00;;;;;;5130955;27;21627;-80
2023/12/09 05:32:03;;;;;;;57.50;33.08;;;3.60;1.00;;;;;;5149880;27;20233;-80
2023/12/09 05:34:31;;;;;;;64.82;33.95;;;3.60;1.00;;;;;;5144298;27;20233;-81
2023/12/09 05:36:58;;;;;;;54.33;33.10;;;3.60;1.00;;;;;;5126451;27;20234;-80
2023/12/09 05:39:26;;;;;;;62.15;36.47;;;3.60;1.00;;;;;;5113388;27;20231;-80
2023/12/09 05:41:53;;;;;;;69.18;34.03;;;3.70;1.00;;;;;;5128085;27;20273;-79
2023/12/09 05:44:21;;;;;;;65.72;34.67;;;3.60;1.00;;;;;;5127946;27;20242;-78
2023/12/09 05:46:48;;;;;;;74.25;35.05;;;3.70;1.00;;;;;;5126334;27;20259;-80
2023/12/09 05:49:17;;;;;;;68.90;36.22;;;3.60;1.00;;;;;;5129529;27;20296;-79
2023/12/09 05:51:45;;;;;;;57.28;33.20;;;3.60;1.00;;;;;;5129741;27;20698;-81
2023/12/09 05:54:14;;;;;;;60.03;33.28;;;3.60;1.00;;;;;;5114648;27;20261;-78
2023/12/09 05:56:47;;;;;;;62.33;33.20;;;3.50;1.00;;;;;;5132264;27;20325;-79
2023/12/09 05:59:17;;;;;;;68.57;33.03;;;3.60;1.00;;;;;;5129925;27;20242;-79
2023/12/09 06:01:45;;;;;;;60.90;30.95;;;3.60;1.00;;;;;;5121835;27;20357;-78
2023/12/09 06:04:12;;;;;;;53.90;33.53;;;3.60;1.00;;;;;;5128869;27;20321;-80
2023/12/09 06:06:45;;;;;;;59.38;31.35;;;3.60;1.00;;;;;;5109582;27;20222;-79
2023/12/09 06:09:14;;;;;;;56.05;32.83;;;3.70;1.00;;;;;;5119799;27;20343;-80
2023/12/09 06:11:45;;;;;;;53.97;32.17;;;3.70;1.00;;;;;;5126753;27;20245;-81
2023/12/09 06:14:12;;;;;;;61.28;33.45;;;3.80;1.00;;;;;;5124198;27;20248;-80
2023/12/09 06:16:39;;;;;;;52.25;35.33;;;3.80;1.00;;;;;;5133125;27;22832;-80
2023/12/09 06:19:06;;;;;;;55.03;33.28;;;3.90;1.00;;;;;;5134125;27;20238;-79
2023/12/09 06:21:33;;;;;;;60.10;32.20;;;3.80;1.00;;;;;;5120160;27;20238;-83
2023/12/09 06:24:02;;;;;;;56.30;32.63;;;3.80;1.00;;;;;;5132851;27;20238;-79
2023/12/09 06:26:28;;;;;;;53.38;32.65;;;3.80;1.00;;;;;;5130227;27;20238;-79
2023/12/09 06:28:58;;;;;;;51.17;30.85;;;3.80;1.00;;;;;;5133652;27;22182;-79
2023/12/09 06:31:25;;;;;;;50.40;33.15;;;3.80;1.00;;;;;;5129860;27;20238;-79
2023/12/09 06:33:52;;;;;;;56.08;32.75;;;3.90;1.00;;;;;;5131932;27;20325;-80
2023/12/09 06:36:20;;;;;;;55.08;33.55;;;3.90;1.00;;;;;;5128960;27;20234;-79
2023/12/09 06:38:47;;;;;;;50.28;32.40;;;4.00;1.00;;;;;;5136454;27;20265;-80
2023/12/09 06:41:16;;;;;;;54.97;31.38;;;3.80;1.00;;;;;;5147143;27;20761;-81
2023/12/09 06:43:42;;;;;;;57.45;32.60;;;3.80;1.00;;;;;;5142818;27;20223;-80
2023/12/09 06:46:09;;;;;;;55.35;33.95;;;3.80;1.00;;;;;;5148529;27;20230;-79
2023/12/09 06:48:38;;;;;;;52.03;33.97;;;3.80;1.00;;;;;;5150095;27;20265;-79
2023/12/09 06:51:07;;;;;;;55.25;35.35;;;3.80;1.00;;;;;;5147795;27;20231;-80
2023/12/09 06:53:38;;;;;;;52.17;33.03;;;3.80;1.00;;;;;;5147437;27;20234;-80
2023/12/09 06:56:06;;;;;;;56.75;34.75;;;3.80;1.00;;;;;;5144381;27;20243;-80
2023/12/09 06:58:36;;;;;;;58.30;35.00;;;3.80;1.00;;;;;;5148437;27;20283;-82
2023/12/09 07:01:03;;;;;;;54.53;33.83;;;3.80;1.00;;;;;;5143615;27;21016;-79
2023/12/09 07:03:30;;;;;;;60.30;36.50;;;3.70;1.00;;;;;;5148233;27;20710;-79
2023/12/09 07:05:57;;;;;;;52.38;32.22;;;3.80;1.00;;;;;;5148293;27;22316;-80
2023/12/09 07:08:24;;;;;;;64.38;37.45;;;3.90;1.00;;;;;;5148897;27;20714;-79
2023/12/09 07:10:51;;;;;;;60.80;33.97;;;3.90;1.00;;;;;;5151580;27;20260;-79
2023/12/09 07:13:18;;;;;;;51.47;32.58;;;3.90;1.00;;;;;;5149154;27;20241;-81
2023/12/09 07:15:47;;;;;;;60.63;36.58;;;4.00;1.00;;;;;;5145849;27;20231;-80
2023/12/09 07:18:13;;;;;;;62.22;36.25;;;4.20;1.00;;;;;;5140294;27;20251;-79
2023/12/09 07:20:42;;;;;;;49.50;32.17;;;4.10;1.00;;;;;;5150089;27;20237;-80
2023/12/09 07:23:09;;;;;;;48.47;32.95;;;4.10;1.00;;;;;;5133150;27;20240;-78
2023/12/09 07:25:36;;;;;;;49.72;32.95;;;4.10;1.00;;;;;;5137573;27;20273;-79
2023/12/09 07:28:03;;;;;;;55.90;34.53;;;4.10;1.00;;;;;;5147003;27;20259;-80
2023/12/09 07:30:30;;;;;;;50.35;31.48;;;4.10;1.00;;;;;;5137851;27;20791;-81
2023/12/09 07:32:58;;;;;;;45.28;30.48;;;4.10;1.00;;;;;;5131055;27;20301;-80
2023/12/09 07:35:27;;;;;;;51.42;32.53;;;4.10;1.00;;;;;;5143466;27;21613;-79
2023/12/09 07:37:55;;;;;;;44.35;29.80;;;4.20;1.00;;;;;;5139797;27;20238;-79
2023/12/09 07:40:22;;;;;;;47.42;31.58;;;4.30;1.00;;;;;;5119311;27;20242;-79
2023/12/09 07:42:50;;;;;;;42.15;28.17;;;4.30;1.00;;;;;;5145359;27;20610;-79
2023/12/09 07:45:17;;;;;;;47.58;29.80;;;4.20;1.00;;;;;;5147035;27;20257;-80
2023/12/09 07:47:44;;;;;;;44.08;30.00;;;4.20;1.00;;;;;;5145450;27;21040;-79
2023/12/09 07:50:13;;;;;;;42.03;29.05;;;4.30;1.00;;;;;;5146227;27;20330;-80
2023/12/09 07:52:40;;;;;;;43.40;30.13;;;4.40;1.00;;;;;;5146021;27;20290;-80
2023/12/09 07:55:09;;;;;;;44.67;29.15;;;4.30;1.00;;;;;;5143433;27;20239;-79
2023/12/09 07:57:36;;;;;;;42.88;28.10;;;4.30;1.00;;;;;;5147220;27;20230;-80
2023/12/09 08:00:04;;;;;;;36.20;27.17;;;4.30;1.00;;;;;;5146895;27;20295;-80
2023/12/09 08:02:31;;;;;;;39.97;28.05;;;4.30;1.00;;;;;;5141141;27;20237;-79
2023/12/09 08:04:58;;;;;;;38.15;26.40;;;4.30;1.00;;;;;;5152721;27;20219;-81
2023/12/09 08:07:27;;;;;;;41.58;27.13;;;4.30;1.00;;;;;;5136015;27;20260;-79
2023/12/09 08:09:54;;;;;;;36.28;25.67;;;4.40;1.00;;;;;;5137784;27;20299;-80
2023/12/09 08:12:21;;;;;;;35.55;27.45;;;4.50;1.00;;;;;;5147152;27;20241;-80
2023/12/09 08:14:49;;;;;;;35.50;25.15;;;4.40;1.00;;;;;;5146655;27;20233;-80
2023/12/09 08:17:16;;;;;;;38.20;25.80;;;4.40;1.00;;;;;;5151762;27;20325;-80
2023/12/09 08:19:43;;;;;;;34.60;25.20;;;4.40;1.00;;;;;;5146170;27;20811;-81
2023/12/09 08:22:10;;;;;;;32.58;24.00;;;4.50;1.00;;;;;;5147136;27;20236;-81
2023/12/09 08:24:38;;;;;;;36.83;26.73;;;4.60;1.00;;;;;;5145804;27;20233;-80
2023/12/09 08:27:06;;;;;;;33.13;23.60;;;4.80;1.00;;;;;;5147569;27;20239;-80
2023/12/09 08:29:33;;;;;;;33.90;24.02;;;4.90;1.00;;;;;;5146026;27;20290;-80
2023/12/09 08:32:00;;;;;;;31.10;23.17;;;5.10;1.00;;;;;;5135348;27;20244;-79
2023/12/09 08:34:29;;;;;;;33.50;23.88;;;5.00;1.00;;;;;;5145725;27;20333;-82
2023/12/09 08:36:56;;;;;;;28.95;21.80;;;4.90;1.00;;;;;;5144805;27;20320;-80
2023/12/09 08:39:23;;;;;;;36.85;24.48;;;4.90;1.00;;;;;;5149312;27;20258;-80
2023/12/09 08:41:51;;;;;;;31.30;22.75;;;4.90;1.00;;;;;;5126127;27;20238;-80
2023/12/09 08:44:18;;;;;;;28.20;22.27;;;5.00;1.00;;;;;;5125114;27;20234;-79
2023/12/09 08:46:47;;;;;;;26.90;20.95;;;5.10;1.00;;;;;;5145474;27;20246;-79
2023/12/09 08:49:14;;;;;;;26.77;21.83;;;5.00;1.00;;;;;;5147871;27;20315;-79
2023/12/09 08:51:48;;;;;;;25.05;20.52;;;5.10;1.00;;;;;;5152701;27;20235;-79
2023/12/09 08:54:15;;;;;;;27.75;21.85;;;5.00;1.00;;;;;;5146438;27;20266;-79
2023/12/09 08:56:43;;;;;;;26.70;21.88;;;5.10;1.00;;;;;;5139316;27;21105;-79
2023/12/09 08:59:13;;;;;;;30.33;22.98;;;5.20;1.00;;;;;;5147195;27;20265;-80
2023/12/09 09:01:41;;;;;;;28.35;20.92;;;5.30;1.00;;;;;;5150226;27;20240;-78
2023/12/09 09:04:08;;;;;;;27.45;21.40;;;5.20;1.00;;;;;;5144755;27;20247;-79
2023/12/09 09:06:35;;;;;;;28.85;22.50;;;5.20;1.00;;;;;;5150944;27;20330;-80
2023/12/09 09:09:02;;;;;;;29.25;21.20;;;5.30;1.00;;;;;;5150211;27;20270;-78
2023/12/09 09:11:29;;;;;;;28.75;22.80;;;5.20;1.00;;;;;;5124029;27;20231;-78
2023/12/09 09:13:58;;;;;;;28.73;21.50;;;5.20;1.00;;;;;;5144655;27;20323;-78
2023/12/09 09:16:28;;;;;;;26.33;21.08;;;5.10;1.00;;;;;;5148839;27;20242;-79
2023/12/09 09:18:55;;;;;;;24.65;19.70;;;5.10;1.00;;;;;;5146227;27;20321;-78
2023/12/09 09:21:24;;;;;;;26.27;20.95;;;5.10;1.00;;;;;;5133064;27;20233;-79
2023/12/09 09:23:51;;;;;;;23.67;20.05;;;5.10;1.00;;;;;;5143881;27;20238;-78
2023/12/09 09:26:21;;;;;;;23.08;19.50;;;5.00;1.00;;;;;;5132235;27;20281;-75
2023/12/09 09:28:49;;;;;;;25.77;20.17;;;5.20;1.00;;;;;;5138440;27;20234;-76
2023/12/09 09:31:16;;;;;;;28.17;20.80;;;5.20;1.00;;;;;;5143931;27;20619;-78
2023/12/09 09:33:45;;;;;;;24.60;20.15;;;5.20;1.00;;;;;;5132278;27;20244;-77
2023/12/09 09:36:12;;;;;;;33.22;21.08;;;5.30;1.00;;;;;;5150173;27;20230;-77
2023/12/09 09:38:39;;;;;;;28.58;21.27;;;5.30;1.00;;;;;;5148139;27;20235;-79
2023/12/09 09:41:13;;;;;;;27.33;19.10;;;5.40;1.00;;;;;;5141686;27;20907;-76
2023/12/09 09:43:47;;;;;;;23.95;19.85;;;5.30;1.00;;;;;;5149323;27;20239;-77
2023/12/09 09:46:16;;;;;;;22.27;17.70;;;5.30;1.00;;;;;;5139054;27;20249;-77
2023/12/09 09:48:46;;;;;;;25.95;19.40;;;5.30;1.00;;;;;;5150747;27;20237;-75
2023/12/09 09:51:19;;;;;;;22.70;18.25;;;5.40;1.00;;;;;;5137388;27;20239;-76
2023/12/09 09:54:00;;;;;;;21.15;18.52;;;5.30;1.00;;;;;;5130417;27;20395;-77
2023/12/09 09:56:28;;;;;;;23.50;19.17;;;5.40;1.00;;;;;;5147362;27;20981;-76
2023/12/09 09:58:55;;;;;;;27.33;20.63;;;5.40;1.00;;;;;;5149653;27;20372;-75
2023/12/09 10:01:24;;;;;;;25.50;19.88;;;5.30;1.00;;;;;;5138400;27;20234;-78
2023/12/09 10:03:55;;;;;;;22.08;17.25;;;5.30;1.00;;;;;;5140840;27;20651;-80
2023/12/09 10:06:31;;;;;;;23.83;18.67;;;5.40;1.00;;;;;;5141779;27;20399;-80
2023/12/09 10:09:00;;;;;;;25.75;19.35;;;5.40;1.00;;;;;;5152199;27;20241;-77
2023/12/09 10:11:27;;;;;;;26.52;20.20;;;5.20;1.00;;;;;;5151231;27;20262;-80
2023/12/09 10:13:55;;;;;;;21.73;17.25;;;5.30;1.00;;;;;;5143963;27;20356;-79
2023/12/09 10:16:22;;;;;;;20.13;17.35;;;5.30;1.00;;;;;;5151084;27;20299;-78
2023/12/09 10:18:49;;;;;;;20.95;18.05;;;5.30;1.00;;;;;;5151316;27;20288;-77
2023/12/09 10:21:21;;;;;;;22.70;17.35;;;5.40;1.00;;;;;;5155260;27;20740;-78
2023/12/09 10:23:49;;;;;;;23.73;18.35;;;5.40;1.00;;;;;;5150590;27;20235;-78
2023/12/09 10:26:16;;;;;;;22.10;18.65;;;5.50;1.00;;;;;;5151802;27;20238;-79
2023/12/09 10:28:43;;;;;;;21.95;17.08;;;5.50;1.00;;;;;;5155262;27;21032;-83
2023/12/09 10:31:10;;;;;;;22.10;18.25;;;5.50;1.00;;;;;;5150853;27;20258;-80
2023/12/09 10:33:38;;;;;;;20.23;17.83;;;5.60;1.00;;;;;;5142585;27;20231;-80
2023/12/09 10:36:08;;;;;;;23.08;18.00;;;5.60;1.00;;;;;;5143922;27;20238;-80
2023/12/09 10:38:42;;;;;;;22.73;17.27;;;5.70;1.00;;;;;;5121209;27;20623;-79
2023/12/09 10:41:12;;;;;;;21.90;16.80;;;5.70;1.00;;;;;;5132148;27;21163;-81
2023/12/09 10:43:41;;;;;;;21.55;16.27;;;5.80;1.00;;;;;;5126337;27;20243;-81
2023/12/09 10:46:10;;;;;;;20.90;16.20;;;5.80;1.00;;;;;;5124410;27;20333;-80
2023/12/09 10:48:37;;;;;;;19.77;15.75;;;5.80;1.00;;;;;;5122723;27;20309;-80
2023/12/09 10:51:05;;;;;;;18.58;16.10;;;5.90;1.00;;;;;;5123909;27;21113;-82
2023/12/09 10:53:32;;;;;;;18.35;14.50;;;5.90;1.00;;;;;;5130519;27;20963;-82
2023/12/09 10:56:01;;;;;;;19.30;16.50;;;6.00;1.00;;;;;;5116049;27;20270;-82
2023/12/09 10:58:28;;;;;;;25.27;17.63;;;5.90;1.00;;;;;;5115549;27;21682;-83
2023/12/09 11:00:59;;;;;;;19.08;15.85;;;6.00;1.00;;;;;;5119970;27;20253;-82
2023/12/09 11:03:28;;;;;;;20.77;15.60;;;5.90;1.00;;;;;;5130556;27;20258;-82
2023/12/09 11:06:01;;;;;;;19.35;15.70;;;5.90;1.00;;;;;;5131159;27;20318;-81
2023/12/09 11:08:28;;;;;;;19.25;15.65;;;5.90;1.00;;;;;;5114644;27;20263;-82
2023/12/09 11:10:56;;;;;;;19.15;14.90;;;5.90;1.00;;;;;;5107331;27;20243;-80
2023/12/09 11:13:29;;;;;;;19.23;15.48;;;5.90;1.00;;;;;;5126295;27;20243;-81
2023/12/09 11:16:12;;;;;;;17.25;15.40;;;6.00;1.00;;;;;;5129271;27;20232;-81
2023/12/09 11:18:51;;;;;;;21.42;15.98;;;6.10;1.00;;;;;;5124829;27;20369;-79
2023/12/09 11:21:19;;;;;;;16.17;13.93;;;6.00;1.00;;;;;;5126660;27;20292;-82
2023/12/09 11:23:48;;;;;;;18.33;14.13;;;6.00;1.00;;;;;;5126547;27;20355;-81
2023/12/09 11:26:17;;;;;;;18.52;15.48;;;6.00;1.00;;;;;;5107492;27;20235;-79
2023/12/09 11:29:04;;;;;;;22.15;15.75;;;6.10;1.00;;;;;;5119337;27;20242;-81
2023/12/09 11:31:39;;;;;;;15.23;13.27;;;6.20;1.00;;;;;;5109859;27;20233;-81
2023/12/09 11:34:07;;;;;;;17.27;14.00;;;6.20;1.00;;;;;;5129848;27;20231;-81
2023/12/09 11:36:38;;;;;;;15.88;14.25;;;6.30;1.00;;;;;;5135918;27;20238;-81
2023/12/09 11:39:06;;;;;;;19.42;14.98;;;6.40;1.00;;;;;;5133265;27;20245;-79
2023/12/09 11:41:34;;;;;;;16.48;13.43;;;6.50;1.00;;;;;;5135167;27;20226;-82
2023/12/09 11:44:02;;;;;;;14.82;13.07;;;6.50;1.00;;;;;;5128063;27;20235;-81
2023/12/09 11:46:32;;;;;;;17.13;13.40;;;6.70;1.00;;;;;;5119162;27;20349;-81
2023/12/09 11:48:59;;;;;;;14.55;13.00;;;6.70;1.00;;;;;;5135226;27;20223;-81
2023/12/09 11:51:29;;;;;;;16.20;14.48;;;6.70;1.00;;;;;;5132061;27;20301;-81
2023/12/09 11:53:56;;;;;;;16.10;13.33;;;6.80;1.00;;;;;;5100951;27;20235;-81
2023/12/09 11:56:24;;;;;;;15.63;12.27;;;6.80;1.00;;;;;;5128619;27;20474;-82
2023/12/09 11:58:51;;;;;;;18.30;13.70;;;6.80;1.00;;;;;;5135614;27;20239;-81
2023/12/09 12:01:18;;;;;;;15.20;13.18;;;6.70;1.00;;;;;;5131200;27;20240;-82
2023/12/09 12:03:48;;;;;;;14.13;12.63;;;6.70;1.00;;;;;;5132513;27;20298;-80
2023/12/09 12:06:16;;;;;;;15.43;12.88;;;6.80;1.00;;;;;;5129830;27;20237;-82
2023/12/09 12:08:44;;;;;;;15.98;11.85;;;6.80;1.00;;;;;;5135877;27;20304;-82
2023/12/09 12:11:11;;;;;;;16.05;11.55;;;6.90;1.00;;;;;;5120245;27;20274;-82
2023/12/09 12:13:38;;;;;;;14.05;12.55;;;6.90;1.00;;;;;;5135135;27;20318;-82
2023/12/09 12:16:06;;;;;;;14.95;12.50;;;6.90;1.00;;;;;;5131345;27;21007;-82
2023/12/09 12:18:35;;;;;;;16.17;12.97;;;7.00;1.00;;;;;;5129091;27;20988;-80
2023/12/09 12:21:04;;;;;;;14.52;12.63;;;7.00;1.00;;;;;;5117508;27;20481;-83
2023/12/09 12:23:31;;;;;;;13.35;11.48;;;7.00;1.00;;;;;;5130826;27;20276;-79
2023/12/09 12:25:58;;;;;;;13.05;11.35;;;6.80;1.00;;;;;;5126383;27;20235;-80
2023/12/09 12:28:26;;;;;;;13.90;11.38;;;6.70;1.00;;;;;;5127155;27;20230;-82
2023/12/09 12:30:55;;;;;;;15.00;11.80;;;6.70;1.00;;;;;;5136970;27;20233;-83
2023/12/09 12:33:23;;;;;;;12.25;8.88;;;6.80;1.00;;;;;;5130320;27;20240;-83
2023/12/09 12:35:54;;;;;;;13.82;10.63;;;6.90;1.00;;;;;;5131179;27;20313;-83
2023/12/09 12:38:24;;;;;;;11.23;9.20;;;7.10;1.00;;;;;;5148011;27;20232;-82
2023/12/09 12:40:51;;;;;;;10.82;9.32;;;7.10;1.00;;;;;;5154790;27;20235;-82
2023/12/09 12:43:19;;;;;;;13.73;10.70;;;7.10;1.00;;;;;;5150398;27;20233;-81
2023/12/09 12:45:49;;;;;;;13.35;10.98;;;7.20;1.00;;;;;;5145155;27;20430;-81
2023/12/09 12:48:17;;;;;;;11.80;10.00;;;7.20;1.00;;;;;;5151432;27;20245;-80
2023/12/09 12:50:44;;;;;;;12.88;9.77;;;7.20;1.00;;;;;;5151274;27;20241;-81
2023/12/09 12:53:16;;;;;;;13.70;11.85;;;7.20;1.00;;;;;;5151954;27;20946;-82